Terminal Aerodrome Forecast
Issued by NWS

Home | Current Version | Previous Version | Text Only | Print | Product List | Glossary On
Versions: 1 2 3 4 5 6 7 8 9 10 11 12 13 14
000
FTUS45 KFGZ 271141
TAFPGA
TAF
KPGA 271141Z 2712/2812 18008KT P6SM OVC070
     FM271800 22013G24KT P6SM SCT060 BKN150
     FM280000 26011KT P6SM BKN060 OVC100
      TEMPO 2802/2806 5SM -RA OVC040
     FM280600 27005KT 4SM -SHRA BR OVC030=

USA.gov is the U.S. government's official web portal to all federal, state and local government web resources and services.